Weather History for KCKC - April, 2014

Change the Weather History Date:

Thursday, April 17, 2014

  Actual Average Record
Temperature  
Mean Temperature 26 °F -  
Max Temperature 30 °F 44 °F 66 °F (2009)
Min Temperature 21 °F 26 °F 3 °F (2012)
Degree Days  
Heating Degree Days 40    
Moisture  
Dew Point 22 °F    
Average Humidity 81    
Maximum Humidity 86    
Minimum Humidity 75    
Precipitation  
Precipitation 0.10 in - - ()
Sea Level Pressure  
Sea Level Pressure 30.18 in    
Wind  
Wind Speed 12 mph (NNE)    
Max Wind Speed 17 mph    
Max Gust Speed 26 mph    
Visibility 4 miles    
Events Snow    
Averages and records for this station are not official NWS values.
T = Trace of Precipitation, MM = Missing Value Source: NWS Daily Summary

Daily Weather History Graph

Daily Weather History Graph

Search for Another Location

Airport or City:

Trip Planner

Search our weather history database for the weather conditions in past years. The results will help you decide how hot, cold, wet, or windy it might be!

Date:

Astronomy

Apr. 17, 2014 Rise Set
Actual Time 6:08 AM CDT 7:54 PM CDT
Civil Twilight 5:35 AM CDT 8:27 PM CDT
Nautical Twilight 4:55 AM CDT 9:07 PM CDT
Astronomical Twilight 4:11 AM CDT 9:51 PM CDT
Moon 10:49 PM CDT (4/17) 7:32 AM CDT (4/17)
Length of Visible Light 14h 51m
Length of Day
13h 45m
Waning Gibbous, 93% of the Moon is Illuminated
Apr 17
Waning Gibbous
Apr 22
Last Quarter
Apr 29
New
May 6
First Quarter
May 14
Full

Hourly Weather History & Observations

Time (CDT) Temp. Windchill Dew Point Humidity Pressure Visibility Wind Dir Wind Speed Gust Speed Precip Events Conditions
12:13 AM 21.2 °F 8.3 °F 17.6 °F 86% 30.20 in 1.2 mi NE 13.8 mph 19.6 mph N/A Snow Light Snow
12:34 AM 21.2 °F 7.8 °F 17.6 °F 86% 30.20 in 1.0 mi NE 15.0 mph 19.6 mph N/A Snow Light Snow
12:53 AM 23.0 °F 10.1 °F 19.4 °F 86% 30.20 in 1.5 mi NE 15.0 mph 19.6 mph N/A Snow Light Snow
1:14 AM 23.0 °F 10.1 °F 19.4 °F 86% 30.20 in 2.0 mi NE 15.0 mph 19.6 mph N/A Snow Light Snow
1:33 AM 24.8 °F 11.9 °F 19.4 °F 80% 30.19 in 1.5 mi ENE 16.1 mph 20.7 mph N/A Snow Light Snow
1:53 AM 24.8 °F 12.9 °F 19.4 °F 80% 30.19 in 1.0 mi NE 13.8 mph 23.0 mph N/A Snow Snow
2:14 AM 24.8 °F 13.4 °F 19.4 °F 80% 30.18 in 1.2 mi NE 12.7 mph - N/A Snow Light Snow
2:33 AM 24.8 °F 13.4 °F 19.4 °F 80% 30.18 in 1.8 mi ENE 12.7 mph 26.5 mph N/A Snow Light Snow
2:53 AM 24.8 °F 12.4 °F 19.4 °F 80% 30.17 in 1.5 mi ENE 15.0 mph 21.9 mph N/A Snow Light Snow
3:14 AM 24.8 °F 12.9 °F 19.4 °F 80% 30.17 in 1.5 mi ENE 13.8 mph 21.9 mph N/A Snow Light Snow
3:33 AM 24.8 °F 12.9 °F 19.4 °F 80% 30.16 in 1.2 mi NE 13.8 mph 19.6 mph N/A Snow Light Snow
3:54 AM 24.8 °F 11.9 °F 19.4 °F 80% 30.16 in 1.2 mi NE 16.1 mph 26.5 mph N/A Snow Light Snow
4:13 AM 24.8 °F 11.9 °F 19.4 °F 80% 30.16 in 1.2 mi NE 16.1 mph 23.0 mph N/A Snow Light Snow
4:33 AM 24.8 °F 12.9 °F 19.4 °F 80% 30.15 in 1.2 mi ENE 13.8 mph 20.7 mph N/A Snow Light Snow
4:54 AM 24.8 °F 11.9 °F 19.4 °F 80% 30.15 in 1.5 mi NE 16.1 mph 19.6 mph N/A Snow Light Snow
5:13 AM 24.8 °F 13.4 °F 19.4 °F 80% 30.15 in 1.8 mi ENE 12.7 mph 20.7 mph N/A Snow Light Snow
5:33 AM 24.8 °F 13.4 °F 19.4 °F 80% 30.14 in 1.5 mi NE 12.7 mph 19.6 mph N/A Snow Light Snow
5:54 AM 24.8 °F 11.9 °F 19.4 °F 80% 30.14 in 1.5 mi NE 16.1 mph 19.6 mph N/A Snow Light Snow
6:14 AM 24.8 °F 14.0 °F 19.4 °F 80% 30.14 in 1.8 mi NE 11.5 mph - N/A Snow Light Snow
6:33 AM 24.8 °F 12.4 °F 19.4 °F 80% 30.14 in 2.0 mi ENE 15.0 mph 21.9 mph N/A Snow Light Snow
6:54 AM 24.8 °F 12.9 °F 19.4 °F 80% 30.14 in 2.5 mi ENE 13.8 mph 19.6 mph N/A Snow Light Snow
7:13 AM 24.8 °F 12.9 °F 19.4 °F 80% 30.14 in 2.0 mi ENE 13.8 mph 19.6 mph N/A Snow Light Snow
7:34 AM 24.8 °F 14.6 °F 21.2 °F 86% 30.14 in 2.0 mi ENE 10.4 mph 19.6 mph N/A Snow Light Snow
7:54 AM 26.6 °F 15.7 °F 21.2 °F 80% 30.15 in 1.5 mi NE 12.7 mph - N/A Snow Light Snow
8:13 AM 26.6 °F 15.2 °F 21.2 °F 80% 30.14 in 1.5 mi NE 13.8 mph 20.7 mph N/A Snow Light Snow
8:34 AM 26.6 °F 14.7 °F 21.2 °F 80% 30.14 in 1.5 mi ENE 15.0 mph 21.9 mph N/A Snow Light Snow
8:53 AM 26.6 °F 15.2 °F 21.2 °F 80% 30.14 in 1.0 mi ENE 13.8 mph 19.6 mph N/A Snow Light Snow
9:14 AM 26.6 °F 14.7 °F 23.0 °F 86% 30.13 in 0.8 mi ENE 15.0 mph 23.0 mph N/A Snow Light Snow
9:34 AM 26.6 °F 14.7 °F 23.0 °F 86% 30.14 in 1.0 mi ENE 15.0 mph - N/A Snow Light Snow
9:53 AM 26.6 °F 13.8 °F 23.0 °F 86% 30.14 in 1.0 mi ENE 17.3 mph 25.3 mph N/A Snow Light Snow
10:13 AM 26.6 °F 17.5 °F 23.0 °F 86% 30.14 in 2.0 mi ENE 9.2 mph 16.1 mph N/A Snow Light Snow
10:34 AM 26.6 °F 14.7 °F 23.0 °F 86% 30.14 in 2.0 mi NE 15.0 mph 19.6 mph N/A Snow Light Snow
11:13 AM 28.4 °F 17.0 °F 23.0 °F 80% 30.14 in 4.0 mi ENE 15.0 mph 18.4 mph N/A   Haze
11:33 AM 28.4 °F 20.4 °F 23.0 °F 80% 30.15 in 4.0 mi NE 8.1 mph - N/A Snow Light Snow
11:54 AM 28.4 °F 19.7 °F 23.0 °F 80% 30.15 in 5.0 mi ENE 9.2 mph - N/A   Haze
12:13 PM 28.4 °F 20.4 °F 24.8 °F 86% 30.15 in 4.0 mi ENE 8.1 mph - N/A Snow Light Snow
12:34 PM 28.4 °F 20.4 °F 24.8 °F 86% 30.15 in 2.5 mi NE 8.1 mph - N/A Snow Light Snow
12:54 PM 28.4 °F 21.2 °F 24.8 °F 86% 30.15 in 1.2 mi NNE 6.9 mph - N/A Snow Light Snow
1:13 PM 28.4 °F 21.2 °F 24.8 °F 86% 30.14 in 1.5 mi NE 6.9 mph - N/A Snow Light Snow
1:34 PM 30.2 °F 21.9 °F 23.0 °F 75% 30.14 in 1.8 mi NNE 9.2 mph - N/A Snow Light Snow
1:53 PM 30.2 °F 23.4 °F 23.0 °F 75% 30.15 in 1.8 mi NNE 6.9 mph - N/A Snow Light Snow
2:13 PM 30.2 °F 25.4 °F 23.0 °F 75% 30.16 in 1.8 mi NNE 4.6 mph - 0.02 in Snow Light Snow
2:34 PM 28.4 °F - 24.8 °F 86% 30.16 in 0.5 mi Calm Calm - 0.02 in Snow Light Snow
2:53 PM 30.2 °F 23.4 °F 24.8 °F 80% 30.16 in 0.8 mi NNW 6.9 mph - 0.04 in Snow Light Snow
3:13 PM 30.2 °F 22.6 °F 24.8 °F 80% 30.17 in 1.2 mi NNW 8.1 mph - N/A Snow Light Snow
3:33 PM 30.2 °F 22.6 °F 24.8 °F 80% 30.16 in 1.0 mi NW 8.1 mph - 0.02 in Snow Light Snow
3:54 PM 30.2 °F 23.4 °F 24.8 °F 80% 30.17 in 1.8 mi NW 6.9 mph - 0.04 in Snow Light Snow
4:13 PM 30.2 °F 22.6 °F 24.8 °F 80% 30.17 in 2.5 mi NW 8.1 mph - N/A Snow Light Snow
4:33 PM 30.2 °F 23.4 °F 24.8 °F 80% 30.18 in 3.0 mi NW 6.9 mph - N/A Snow Light Snow
4:54 PM 30.2 °F 22.6 °F 23.0 °F 75% 30.19 in 3.0 mi NNW 8.1 mph - N/A Snow Light Snow
5:13 PM 30.2 °F 25.4 °F 24.8 °F 80% 30.19 in 2.5 mi NNW 4.6 mph - 0.02 in Snow Light Snow
5:33 PM 30.2 °F 22.6 °F 23.0 °F 75% 30.20 in 4.0 mi North 8.1 mph - 0.02 in Snow Light Snow
5:54 PM 30.2 °F 23.4 °F 23.0 °F 75% 30.20 in 4.0 mi NNW 6.9 mph - 0.02 in Snow Light Snow
6:13 PM 30.2 °F 24.3 °F 23.0 °F 75% 30.20 in 2.5 mi NNW 5.8 mph - N/A Snow Light Snow
6:33 PM 30.2 °F 24.3 °F 23.0 °F 75% 30.20 in 7.0 mi NNW 5.8 mph - N/A Snow Light Snow
6:54 PM 28.4 °F 21.2 °F 23.0 °F 80% 30.21 in 10.0 mi NNW 6.9 mph - N/A Snow Light Snow
7:13 PM 28.4 °F 22.2 °F 24.8 °F 86% 30.21 in 10.0 mi NNW 5.8 mph - N/A Snow Light Snow
7:33 PM 28.4 °F 22.2 °F 23.0 °F 80% 30.21 in 10.0 mi NNW 5.8 mph - N/A   Overcast
7:54 PM 28.4 °F 21.2 °F 23.0 °F 80% 30.21 in 10.0 mi NNW 6.9 mph - N/A   Overcast
8:13 PM 28.4 °F 24.6 °F 23.0 °F 80% 30.22 in 10.0 mi NW 3.5 mph - N/A   Overcast
8:34 PM 28.4 °F 23.3 °F 23.0 °F 80% 30.23 in 10.0 mi NW 4.6 mph - N/A   Overcast
8:54 PM 28.4 °F 23.3 °F 23.0 °F 80% 30.23 in 10.0 mi NNW 4.6 mph - N/A   Overcast
9:13 PM 28.4 °F 23.3 °F 23.0 °F 80% 30.23 in 10.0 mi NNW 4.6 mph - N/A   Overcast
9:34 PM 28.4 °F - 23.0 °F 80% 30.24 in 10.0 mi Calm Calm - N/A   Overcast
9:54 PM 26.6 °F 21.2 °F 23.0 °F 86% 30.24 in 10.0 mi NW 4.6 mph - N/A   Overcast
10:13 PM 26.6 °F 21.2 °F 23.0 °F 86% 30.24 in 10.0 mi North 4.6 mph - N/A   Overcast
10:34 PM 26.6 °F 22.6 °F 21.2 °F 80% 30.24 in 10.0 mi WNW 3.5 mph - N/A   Overcast
10:54 PM 26.6 °F 22.6 °F 21.2 °F 80% 30.24 in 10.0 mi WNW 3.5 mph - N/A   Overcast
11:14 PM 26.6 °F 22.6 °F 21.2 °F 80% 30.24 in 10.0 mi NW 3.5 mph - N/A   Overcast
11:33 PM 26.6 °F 22.6 °F 21.2 °F 80% 30.25 in 10.0 mi WNW 3.5 mph - N/A   Overcast
11:54 PM 26.6 °F - 21.2 °F 80% 30.25 in 10.0 mi Calm Calm - N/A   Overcast